sensor_id;sensor_type;location;lat;lon;timestamp;P1;durP1;ratioP1;P2;durP2;ratioP2
325;SDS011;150;52.352;14.058;2023-07-24T00:02:23;3.58;;;1.98;;
325;SDS011;150;52.352;14.058;2023-07-24T00:04:53;3.47;;;1.90;;
325;SDS011;150;52.352;14.058;2023-07-24T00:07:29;4.25;;;1.77;;
325;SDS011;150;52.352;14.058;2023-07-24T00:10:03;3.08;;;1.90;;
325;SDS011;150;52.352;14.058;2023-07-24T00:12:55;4.28;;;2.42;;
325;SDS011;150;52.352;14.058;2023-07-24T00:15:31;4.68;;;2.28;;
325;SDS011;150;52.352;14.058;2023-07-24T00:18:09;3.95;;;2.03;;
325;SDS011;150;52.352;14.058;2023-07-24T00:20:38;3.38;;;1.92;;
325;SDS011;150;52.352;14.058;2023-07-24T00:23:09;3.17;;;1.83;;
325;SDS011;150;52.352;14.058;2023-07-24T00:25:43;4.32;;;2.22;;
325;SDS011;150;52.352;14.058;2023-07-24T00:28:15;3.53;;;1.98;;
325;SDS011;150;52.352;14.058;2023-07-24T00:30:43;3.33;;;1.88;;
325;SDS011;150;52.352;14.058;2023-07-24T00:33:11;3.50;;;1.83;;
325;SDS011;150;52.352;14.058;2023-07-24T00:35:38;3.30;;;2.08;;
325;SDS011;150;52.352;14.058;2023-07-24T00:38:04;3.22;;;1.73;;
325;SDS011;150;52.352;14.058;2023-07-24T00:40:31;3.00;;;1.73;;
325;SDS011;150;52.352;14.058;2023-07-24T00:42:58;2.90;;;1.70;;
325;SDS011;150;52.352;14.058;2023-07-24T00:45:25;4.40;;;2.08;;
325;SDS011;150;52.352;14.058;2023-07-24T00:47:52;4.72;;;2.35;;
325;SDS011;150;52.352;14.058;2023-07-24T00:50:20;3.50;;;2.03;;
325;SDS011;150;52.352;14.058;2023-07-24T00:52:47;3.80;;;1.73;;
325;SDS011;150;52.352;14.058;2023-07-24T00:55:14;6.43;;;2.55;;
325;SDS011;150;52.352;14.058;2023-07-24T00:57:41;4.73;;;2.20;;
325;SDS011;150;52.352;14.058;2023-07-24T01:00:10;3.33;;;1.75;;
325;SDS011;150;52.352;14.058;2023-07-24T01:02:37;2.72;;;1.55;;
325;SDS011;150;52.352;14.058;2023-07-24T01:05:04;3.15;;;1.80;;
325;SDS011;150;52.352;14.058;2023-07-24T01:07:32;5.40;;;2.13;;
325;SDS011;150;52.352;14.058;2023-07-24T01:09:59;4.05;;;1.95;;
325;SDS011;150;52.352;14.058;2023-07-24T01:12:27;3.35;;;2.00;;
325;SDS011;150;52.352;14.058;2023-07-24T01:15:03;5.38;;;2.70;;
325;SDS011;150;52.352;14.058;2023-07-24T01:17:34;3.72;;;2.10;;
325;SDS011;150;52.352;14.058;2023-07-24T01:20:05;2.67;;;1.80;;
325;SDS011;150;52.352;14.058;2023-07-24T01:22:39;4.10;;;1.90;;
325;SDS011;150;52.352;14.058;2023-07-24T01:25:23;3.25;;;1.70;;
325;SDS011;150;52.352;14.058;2023-07-24T01:27:55;3.73;;;1.90;;
325;SDS011;150;52.352;14.058;2023-07-24T01:30:22;4.80;;;1.60;;
325;SDS011;150;52.352;14.058;2023-07-24T01:32:48;3.78;;;2.10;;
325;SDS011;150;52.352;14.058;2023-07-24T01:35:15;4.00;;;1.67;;
325;SDS011;150;52.352;14.058;2023-07-24T01:37:42;3.20;;;1.40;;
325;SDS011;150;52.352;14.058;2023-07-24T01:40:10;2.70;;;1.90;;
325;SDS011;150;52.352;14.058;2023-07-24T01:42:37;3.47;;;1.77;;
325;SDS011;150;52.352;14.058;2023-07-24T01:45:06;3.72;;;2.00;;
325;SDS011;150;52.352;14.058;2023-07-24T01:47:34;3.60;;;1.67;;
325;SDS011;150;52.352;14.058;2023-07-24T01:50:00;2.35;;;1.35;;
325;SDS011;150;52.352;14.058;2023-07-24T01:52:27;2.80;;;1.70;;
325;SDS011;150;52.352;14.058;2023-07-24T01:54:54;4.00;;;1.80;;
325;SDS011;150;52.352;14.058;2023-07-24T01:57:20;2.93;;;1.50;;
325;SDS011;150;52.352;14.058;2023-07-24T01:59:47;3.33;;;1.90;;
325;SDS011;150;52.352;14.058;2023-07-24T02:02:15;3.50;;;2.20;;
325;SDS011;150;52.352;14.058;2023-07-24T02:04:41;3.60;;;2.20;;
325;SDS011;150;52.352;14.058;2023-07-24T02:07:08;3.47;;;1.40;;
325;SDS011;150;52.352;14.058;2023-07-24T02:09:35;3.20;;;2.00;;
325;SDS011;150;52.352;14.058;2023-07-24T02:12:02;4.40;;;1.90;;
325;SDS011;150;52.352;14.058;2023-07-24T02:14:29;4.35;;;1.83;;
325;SDS011;150;52.352;14.058;2023-07-24T02:16:56;2.72;;;1.50;;
325;SDS011;150;52.352;14.058;2023-07-24T02:19:23;4.63;;;2.08;;
325;SDS011;150;52.352;14.058;2023-07-24T02:21:50;3.55;;;2.00;;
325;SDS011;150;52.352;14.058;2023-07-24T02:24:17;2.70;;;1.50;;
325;SDS011;150;52.352;14.058;2023-07-24T02:26:43;2.65;;;1.58;;
325;SDS011;150;52.352;14.058;2023-07-24T02:29:10;2.95;;;1.33;;
325;SDS011;150;52.352;14.058;2023-07-24T02:31:37;4.00;;;1.63;;
325;SDS011;150;52.352;14.058;2023-07-24T02:34:03;3.80;;;1.70;;
325;SDS011;150;52.352;14.058;2023-07-24T02:36:31;3.00;;;1.95;;
325;SDS011;150;52.352;14.058;2023-07-24T02:38:58;2.72;;;1.60;;
325;SDS011;150;52.352;14.058;2023-07-24T02:41:24;2.70;;;1.83;;
325;SDS011;150;52.352;14.058;2023-07-24T02:43:51;3.20;;;1.88;;
325;SDS011;150;52.352;14.058;2023-07-24T02:46:17;3.03;;;1.50;;
325;SDS011;150;52.352;14.058;2023-07-24T02:48:44;2.80;;;1.58;;
325;SDS011;150;52.352;14.058;2023-07-24T02:51:10;3.70;;;1.40;;
325;SDS011;150;52.352;14.058;2023-07-24T02:53:38;4.20;;;1.80;;
325;SDS011;150;52.352;14.058;2023-07-24T02:56:05;3.35;;;1.60;;
325;SDS011;150;52.352;14.058;2023-07-24T02:58:32;3.35;;;1.35;;
325;SDS011;150;52.352;14.058;2023-07-24T03:01:02;2.20;;;1.23;;
325;SDS011;150;52.352;14.058;2023-07-24T03:03:29;4.70;;;1.60;;
325;SDS011;150;52.352;14.058;2023-07-24T03:05:55;2.70;;;1.40;;
325;SDS011;150;52.352;14.058;2023-07-24T03:08:22;2.83;;;1.58;;
325;SDS011;150;52.352;14.058;2023-07-24T03:10:50;3.05;;;1.92;;
325;SDS011;150;52.352;14.058;2023-07-24T03:13:17;2.38;;;1.45;;
325;SDS011;150;52.352;14.058;2023-07-24T03:15:50;2.90;;;1.20;;
325;SDS011;150;52.352;14.058;2023-07-24T03:18:18;3.60;;;1.60;;
325;SDS011;150;52.352;14.058;2023-07-24T03:20:44;2.90;;;1.90;;
325;SDS011;150;52.352;14.058;2023-07-24T03:23:11;3.90;;;1.80;;
325;SDS011;150;52.352;14.058;2023-07-24T03:25:37;2.42;;;1.40;;
325;SDS011;150;52.352;14.058;2023-07-24T03:28:06;1.90;;;1.05;;
325;SDS011;150;52.352;14.058;2023-07-24T03:30:32;2.90;;;1.23;;
325;SDS011;150;52.352;14.058;2023-07-24T03:32:59;2.33;;;1.20;;
325;SDS011;150;52.352;14.058;2023-07-24T03:35:27;2.53;;;1.33;;
325;SDS011;150;52.352;14.058;2023-07-24T03:37:53;2.20;;;1.52;;
325;SDS011;150;52.352;14.058;2023-07-24T03:40:20;2.00;;;1.50;;
325;SDS011;150;52.352;14.058;2023-07-24T03:42:46;2.30;;;1.30;;
325;SDS011;150;52.352;14.058;2023-07-24T03:45:14;2.45;;;1.10;;
325;SDS011;150;52.352;14.058;2023-07-24T03:47:41;2.25;;;1.25;;
325;SDS011;150;52.352;14.058;2023-07-24T03:50:08;2.85;;;1.17;;
325;SDS011;150;52.352;14.058;2023-07-24T03:52:35;2.65;;;1.48;;
325;SDS011;150;52.352;14.058;2023-07-24T03:55:02;2.00;;;1.10;;
325;SDS011;150;52.352;14.058;2023-07-24T03:57:29;2.37;;;1.30;;
325;SDS011;150;52.352;14.058;2023-07-24T03:59:56;2.33;;;1.27;;
325;SDS011;150;52.352;14.058;2023-07-24T04:02:24;2.67;;;1.50;;
325;SDS011;150;52.352;14.058;2023-07-24T04:04:50;2.33;;;1.25;;
325;SDS011;150;52.352;14.058;2023-07-24T04:07:17;3.50;;;1.30;;
325;SDS011;150;52.352;14.058;2023-07-24T04:09:44;3.50;;;2.00;;
325;SDS011;150;52.352;14.058;2023-07-24T04:12:10;2.00;;;1.20;;
325;SDS011;150;52.352;14.058;2023-07-24T04:14:37;2.53;;;1.60;;
325;SDS011;150;52.352;14.058;2023-07-24T04:17:05;2.65;;;1.40;;
325;SDS011;150;52.352;14.058;2023-07-24T04:19:36;2.50;;;1.40;;
325;SDS011;150;52.352;14.058;2023-07-24T04:22:04;1.90;;;1.13;;
325;SDS011;150;52.352;14.058;2023-07-24T04:24:31;3.70;;;1.33;;
325;SDS011;150;52.352;14.058;2023-07-24T04:27:01;2.30;;;1.38;;
325;SDS011;150;52.352;14.058;2023-07-24T04:29:29;2.03;;;1.00;;
325;SDS011;150;52.352;14.058;2023-07-24T04:32:00;2.10;;;1.35;;
325;SDS011;150;52.352;14.058;2023-07-24T04:34:30;2.72;;;1.50;;
325;SDS011;150;52.352;14.058;2023-07-24T04:37:00;2.58;;;1.35;;
325;SDS011;150;52.352;14.058;2023-07-24T04:39:27;2.20;;;1.33;;
325;SDS011;150;52.352;14.058;2023-07-24T04:42:04;2.22;;;1.10;;
325;SDS011;150;52.352;14.058;2023-07-24T04:44:32;3.85;;;1.60;;
325;SDS011;150;52.352;14.058;2023-07-24T04:47:04;3.28;;;1.60;;
325;SDS011;150;52.352;14.058;2023-07-24T04:49:31;3.47;;;1.50;;
325;SDS011;150;52.352;14.058;2023-07-24T04:52:00;3.20;;;1.67;;
325;SDS011;150;52.352;14.058;2023-07-24T04:54:28;3.00;;;1.30;;
325;SDS011;150;52.352;14.058;2023-07-24T04:56:55;3.10;;;1.77;;
325;SDS011;150;52.352;14.058;2023-07-24T04:59:23;2.00;;;1.10;;
325;SDS011;150;52.352;14.058;2023-07-24T05:01:50;2.63;;;1.80;;
325;SDS011;150;52.352;14.058;2023-07-24T05:04:18;2.50;;;1.40;;
325;SDS011;150;52.352;14.058;2023-07-24T05:06:45;2.40;;;1.30;;
325;SDS011;150;52.352;14.058;2023-07-24T05:09:13;2.80;;;1.70;;
325;SDS011;150;52.352;14.058;2023-07-24T05:11:40;2.90;;;1.33;;
325;SDS011;150;52.352;14.058;2023-07-24T05:14:07;4.15;;;1.23;;
325;SDS011;150;52.352;14.058;2023-07-24T05:16:34;3.35;;;1.83;;
325;SDS011;150;52.352;14.058;2023-07-24T05:19:00;2.25;;;1.23;;
325;SDS011;150;52.352;14.058;2023-07-24T05:21:27;3.50;;;1.63;;
325;SDS011;150;52.352;14.058;2023-07-24T05:23:54;3.30;;;1.45;;
325;SDS011;150;52.352;14.058;2023-07-24T05:26:22;2.40;;;1.40;;
325;SDS011;150;52.352;14.058;2023-07-24T05:28:49;2.40;;;1.20;;
325;SDS011;150;52.352;14.058;2023-07-24T05:31:18;2.72;;;1.38;;
325;SDS011;150;52.352;14.058;2023-07-24T05:33:44;5.45;;;1.67;;
325;SDS011;150;52.352;14.058;2023-07-24T05:36:11;2.20;;;1.25;;
325;SDS011;150;52.352;14.058;2023-07-24T05:38:38;2.60;;;1.50;;
325;SDS011;150;52.352;14.058;2023-07-24T05:41:05;2.30;;;1.45;;
325;SDS011;150;52.352;14.058;2023-07-24T05:43:33;4.85;;;1.42;;
325;SDS011;150;52.352;14.058;2023-07-24T05:46:00;4.85;;;1.63;;
325;SDS011;150;52.352;14.058;2023-07-24T05:48:27;2.90;;;1.60;;
325;SDS011;150;52.352;14.058;2023-07-24T05:50:53;3.22;;;1.33;;
325;SDS011;150;52.352;14.058;2023-07-24T05:53:20;3.60;;;1.40;;
325;SDS011;150;52.352;14.058;2023-07-24T05:55:51;2.20;;;1.30;;
325;SDS011;150;52.352;14.058;2023-07-24T05:58:22;1.80;;;0.98;;
325;SDS011;150;52.352;14.058;2023-07-24T06:00:51;2.70;;;1.15;;
325;SDS011;150;52.352;14.058;2023-07-24T06:03:17;2.40;;;1.30;;
325;SDS011;150;52.352;14.058;2023-07-24T06:05:44;1.80;;;1.02;;
325;SDS011;150;52.352;14.058;2023-07-24T06:08:11;2.00;;;1.10;;
325;SDS011;150;52.352;14.058;2023-07-24T06:10:37;2.70;;;1.20;;
325;SDS011;150;52.352;14.058;2023-07-24T06:13:07;3.00;;;1.27;;
325;SDS011;150;52.352;14.058;2023-07-24T06:15:34;3.28;;;1.15;;
325;SDS011;150;52.352;14.058;2023-07-24T06:18:02;2.10;;;1.00;;
325;SDS011;150;52.352;14.058;2023-07-24T06:20:31;3.33;;;2.28;;
325;SDS011;150;52.352;14.058;2023-07-24T06:22:58;3.10;;;1.40;;
325;SDS011;150;52.352;14.058;2023-07-24T06:25:25;2.30;;;1.13;;
325;SDS011;150;52.352;14.058;2023-07-24T06:28:01;2.20;;;1.10;;
325;SDS011;150;52.352;14.058;2023-07-24T06:30:37;2.10;;;1.10;;
325;SDS011;150;52.352;14.058;2023-07-24T06:33:11;2.80;;;0.90;;
325;SDS011;150;52.352;14.058;2023-07-24T06:35:41;1.90;;;0.93;;
325;SDS011;150;52.352;14.058;2023-07-24T06:38:19;2.20;;;1.10;;
325;SDS011;150;52.352;14.058;2023-07-24T06:40:47;2.60;;;1.10;;
325;SDS011;150;52.352;14.058;2023-07-24T06:43:22;3.35;;;2.05;;
325;SDS011;150;52.352;14.058;2023-07-24T06:45:53;2.47;;;1.63;;
325;SDS011;150;52.352;14.058;2023-07-24T06:48:29;2.50;;;1.20;;
325;SDS011;150;52.352;14.058;2023-07-24T06:50:57;2.25;;;1.35;;
325;SDS011;150;52.352;14.058;2023-07-24T06:53:25;2.60;;;1.90;;
325;SDS011;150;52.352;14.058;2023-07-24T06:55:57;3.38;;;1.83;;
325;SDS011;150;52.352;14.058;2023-07-24T06:58:27;2.40;;;1.40;;
325;SDS011;150;52.352;14.058;2023-07-24T07:00:55;2.50;;;1.35;;
325;SDS011;150;52.352;14.058;2023-07-24T07:11:38;2.38;;;1.48;;
325;SDS011;150;52.352;14.058;2023-07-24T07:18:01;2.60;;;1.70;;
325;SDS011;150;52.352;14.058;2023-07-24T07:28:29;2.22;;;1.15;;
325;SDS011;150;52.352;14.058;2023-07-24T07:31:05;2.40;;;1.50;;
325;SDS011;150;52.352;14.058;2023-07-24T07:33:39;2.20;;;1.40;;
325;SDS011;150;52.352;14.058;2023-07-24T07:36:20;2.33;;;1.20;;
325;SDS011;150;52.352;14.058;2023-07-24T07:39:15;2.17;;;1.50;;
325;SDS011;150;52.352;14.058;2023-07-24T07:41:49;2.40;;;1.40;;
325;SDS011;150;52.352;14.058;2023-07-24T07:44:41;3.20;;;1.60;;
325;SDS011;150;52.352;14.058;2023-07-24T07:47:33;6.70;;;5.53;;
325;SDS011;150;52.352;14.058;2023-07-24T07:50:20;2.25;;;1.30;;
325;SDS011;150;52.352;14.058;2023-07-24T07:52:54;3.40;;;1.20;;
325;SDS011;150;52.352;14.058;2023-07-24T07:56:04;4.30;;;1.40;;
325;SDS011;150;52.352;14.058;2023-07-24T07:58:36;4.50;;;1.40;;
325;SDS011;150;52.352;14.058;2023-07-24T08:01:11;2.10;;;1.30;;
325;SDS011;150;52.352;14.058;2023-07-24T08:04:05;2.15;;;1.10;;
325;SDS011;150;52.352;14.058;2023-07-24T08:07:04;2.30;;;1.50;;
325;SDS011;150;52.352;14.058;2023-07-24T08:09:55;3.10;;;1.67;;
325;SDS011;150;52.352;14.058;2023-07-24T08:12:31;2.40;;;1.55;;
325;SDS011;150;52.352;14.058;2023-07-24T08:15:26;2.03;;;1.23;;
325;SDS011;150;52.352;14.058;2023-07-24T08:18:13;2.80;;;1.87;;
325;SDS011;150;52.352;14.058;2023-07-24T08:21:21;2.45;;;1.45;;
325;SDS011;150;52.352;14.058;2023-07-24T08:24:07;2.97;;;1.40;;
325;SDS011;150;52.352;14.058;2023-07-24T08:27:04;2.65;;;1.50;;
325;SDS011;150;52.352;14.058;2023-07-24T08:29:44;2.30;;;1.23;;
325;SDS011;150;52.352;14.058;2023-07-24T08:38:05;2.20;;;1.35;;
325;SDS011;150;52.352;14.058;2023-07-24T08:41:13;3.08;;;2.15;;
325;SDS011;150;52.352;14.058;2023-07-24T08:44:08;2.20;;;1.40;;
325;SDS011;150;52.352;14.058;2023-07-24T09:43:41;3.78;;;1.38;;
325;SDS011;150;52.352;14.058;2023-07-24T09:46:48;2.63;;;1.50;;
325;SDS011;150;52.352;14.058;2023-07-24T10:01:35;3.83;;;1.60;;
325;SDS011;150;52.352;14.058;2023-07-24T10:04:20;4.70;;;1.50;;
325;SDS011;150;52.352;14.058;2023-07-24T10:07:33;3.75;;;2.10;;
325;SDS011;150;52.352;14.058;2023-07-24T10:10:22;2.92;;;1.67;;
325;SDS011;150;52.352;14.058;2023-07-24T10:13:18;2.80;;;1.90;;
325;SDS011;150;52.352;14.058;2023-07-24T10:22:40;4.85;;;2.20;;
325;SDS011;150;52.352;14.058;2023-07-24T10:26:02;3.67;;;2.00;;
325;SDS011;150;52.352;14.058;2023-07-24T10:29:39;3.08;;;2.30;;
325;SDS011;150;52.352;14.058;2023-07-24T10:32:24;3.97;;;2.47;;
325;SDS011;150;52.352;14.058;2023-07-24T10:35:15;3.80;;;2.30;;
325;SDS011;150;52.352;14.058;2023-07-24T10:44:35;4.55;;;2.47;;
325;SDS011;150;52.352;14.058;2023-07-24T10:47:42;3.80;;;2.40;;
325;SDS011;150;52.352;14.058;2023-07-24T10:50:28;3.70;;;1.85;;
325;SDS011;150;52.352;14.058;2023-07-24T10:53:14;3.47;;;2.13;;
325;SDS011;150;52.352;14.058;2023-07-24T10:56:28;3.50;;;2.20;;
325;SDS011;150;52.352;14.058;2023-07-24T10:59:39;4.25;;;2.35;;
325;SDS011;150;52.352;14.058;2023-07-24T11:06:01;4.63;;;2.73;;
325;SDS011;150;52.352;14.058;2023-07-24T11:09:08;3.78;;;2.20;;
325;SDS011;150;52.352;14.058;2023-07-24T11:12:00;5.32;;;2.30;;
325;SDS011;150;52.352;14.058;2023-07-24T11:15:31;4.33;;;2.87;;
325;SDS011;150;52.352;14.058;2023-07-24T11:18:54;4.00;;;2.70;;
325;SDS011;150;52.352;14.058;2023-07-24T11:22:06;4.18;;;2.40;;
325;SDS011;150;52.352;14.058;2023-07-24T11:28:46;4.80;;;2.70;;
325;SDS011;150;52.352;14.058;2023-07-24T11:32:16;3.33;;;2.25;;
325;SDS011;150;52.352;14.058;2023-07-24T11:35:34;4.30;;;2.77;;
325;SDS011;150;52.352;14.058;2023-07-24T11:38:58;3.97;;;2.40;;
325;SDS011;150;52.352;14.058;2023-07-24T11:42:16;5.32;;;2.80;;
325;SDS011;150;52.352;14.058;2023-07-24T11:46:21;5.50;;;2.90;;
325;SDS011;150;52.352;14.058;2023-07-24T11:52:41;4.53;;;2.70;;
325;SDS011;150;52.352;14.058;2023-07-24T11:55:41;3.90;;;2.63;;
325;SDS011;150;52.352;14.058;2023-07-24T11:58:21;9.75;;;7.07;;
325;SDS011;150;52.352;14.058;2023-07-24T12:03:53;3.88;;;2.90;;
325;SDS011;150;52.352;14.058;2023-07-24T12:06:28;4.38;;;2.70;;
325;SDS011;150;52.352;14.058;2023-07-24T12:17:17;4.50;;;2.90;;
325;SDS011;150;52.352;14.058;2023-07-24T12:19:59;3.60;;;2.40;;
325;SDS011;150;52.352;14.058;2023-07-24T12:23:36;5.22;;;4.30;;
325;SDS011;150;52.352;14.058;2023-07-24T12:26:20;5.05;;;3.38;;
325;SDS011;150;52.352;14.058;2023-07-24T12:29:06;4.90;;;3.20;;
325;SDS011;150;52.352;14.058;2023-07-24T12:32:15;5.60;;;3.40;;
325;SDS011;150;52.352;14.058;2023-07-24T12:35:41;8.88;;;6.70;;
325;SDS011;150;52.352;14.058;2023-07-24T12:38:43;5.20;;;3.10;;
325;SDS011;150;52.352;14.058;2023-07-24T12:41:10;5.10;;;3.45;;
325;SDS011;150;52.352;14.058;2023-07-24T12:43:37;5.82;;;3.50;;
325;SDS011;150;52.352;14.058;2023-07-24T12:46:03;4.63;;;2.70;;
325;SDS011;150;52.352;14.058;2023-07-24T12:48:30;5.00;;;2.90;;
325;SDS011;150;52.352;14.058;2023-07-24T12:50:58;8.70;;;3.70;;
325;SDS011;150;52.352;14.058;2023-07-24T12:53:26;6.65;;;3.50;;
325;SDS011;150;52.352;14.058;2023-07-24T12:55:52;4.97;;;3.30;;
325;SDS011;150;52.352;14.058;2023-07-24T12:58:22;6.43;;;3.40;;
325;SDS011;150;52.352;14.058;2023-07-24T13:00:48;7.18;;;4.75;;
325;SDS011;150;52.352;14.058;2023-07-24T13:03:15;5.38;;;4.30;;
325;SDS011;150;52.352;14.058;2023-07-24T13:05:42;4.68;;;3.15;;
325;SDS011;150;52.352;14.058;2023-07-24T13:08:10;6.18;;;3.90;;
325;SDS011;150;52.352;14.058;2023-07-24T13:10:36;5.53;;;3.03;;
325;SDS011;150;52.352;14.058;2023-07-24T13:13:03;4.77;;;3.33;;
325;SDS011;150;52.352;14.058;2023-07-24T13:15:30;4.88;;;3.22;;
325;SDS011;150;52.352;14.058;2023-07-24T13:17:57;5.32;;;3.42;;
325;SDS011;150;52.352;14.058;2023-07-24T13:20:24;4.50;;;3.10;;
325;SDS011;150;52.352;14.058;2023-07-24T13:22:50;5.53;;;3.60;;
325;SDS011;150;52.352;14.058;2023-07-24T13:25:18;4.95;;;3.00;;
325;SDS011;150;52.352;14.058;2023-07-24T13:27:45;5.22;;;3.30;;
325;SDS011;150;52.352;14.058;2023-07-24T13:30:12;6.10;;;3.80;;
325;SDS011;150;52.352;14.058;2023-07-24T13:32:39;5.90;;;3.45;;
325;SDS011;150;52.352;14.058;2023-07-24T13:35:06;4.53;;;3.10;;
325;SDS011;150;52.352;14.058;2023-07-24T13:37:33;5.75;;;3.58;;
325;SDS011;150;52.352;14.058;2023-07-24T13:40:00;5.55;;;3.03;;
325;SDS011;150;52.352;14.058;2023-07-24T13:42:28;5.03;;;3.30;;
325;SDS011;150;52.352;14.058;2023-07-24T13:44:54;5.10;;;3.17;;
325;SDS011;150;52.352;14.058;2023-07-24T13:47:21;4.63;;;3.25;;
325;SDS011;150;52.352;14.058;2023-07-24T13:49:48;7.37;;;3.80;;
325;SDS011;150;52.352;14.058;2023-07-24T13:52:14;7.50;;;5.70;;
325;SDS011;150;52.352;14.058;2023-07-24T13:54:44;9.05;;;6.65;;
325;SDS011;150;52.352;14.058;2023-07-24T13:57:15;6.32;;;3.70;;
325;SDS011;150;52.352;14.058;2023-07-24T13:59:44;6.60;;;4.03;;
325;SDS011;150;52.352;14.058;2023-07-24T14:02:11;5.40;;;3.53;;
325;SDS011;150;52.352;14.058;2023-07-24T14:04:40;7.38;;;3.67;;
325;SDS011;150;52.352;14.058;2023-07-24T14:07:15;5.80;;;3.38;;
325;SDS011;150;52.352;14.058;2023-07-24T14:09:50;5.80;;;3.30;;
325;SDS011;150;52.352;14.058;2023-07-24T14:12:18;7.95;;;4.15;;
325;SDS011;150;52.352;14.058;2023-07-24T14:14:46;7.88;;;3.92;;
325;SDS011;150;52.352;14.058;2023-07-24T14:17:24;4.50;;;3.53;;
325;SDS011;150;52.352;14.058;2023-07-24T14:20:00;5.47;;;3.78;;
325;SDS011;150;52.352;14.058;2023-07-24T14:22:26;6.60;;;4.07;;
325;SDS011;150;52.352;14.058;2023-07-24T14:24:55;7.10;;;4.67;;
325;SDS011;150;52.352;14.058;2023-07-24T14:27:22;7.30;;;4.35;;
325;SDS011;150;52.352;14.058;2023-07-24T14:29:50;5.20;;;2.90;;
325;SDS011;150;52.352;14.058;2023-07-24T14:32:24;6.72;;;3.60;;
325;SDS011;150;52.352;14.058;2023-07-24T14:34:52;7.30;;;3.30;;
325;SDS011;150;52.352;14.058;2023-07-24T14:37:24;4.83;;;3.00;;
325;SDS011;150;52.352;14.058;2023-07-24T14:39:54;4.95;;;3.08;;
325;SDS011;150;52.352;14.058;2023-07-24T14:42:24;4.30;;;2.60;;
325;SDS011;150;52.352;14.058;2023-07-24T14:44:52;5.03;;;3.15;;
325;SDS011;150;52.352;14.058;2023-07-24T14:47:20;4.47;;;2.38;;
325;SDS011;150;52.352;14.058;2023-07-24T14:49:49;4.40;;;2.80;;
325;SDS011;150;52.352;14.058;2023-07-24T14:52:15;3.90;;;2.45;;
325;SDS011;150;52.352;14.058;2023-07-24T14:54:47;4.00;;;2.70;;
325;SDS011;150;52.352;14.058;2023-07-24T14:57:14;5.13;;;3.05;;
325;SDS011;150;52.352;14.058;2023-07-24T14:59:43;4.53;;;2.40;;
325;SDS011;150;52.352;14.058;2023-07-24T15:02:11;5.85;;;2.80;;
325;SDS011;150;52.352;14.058;2023-07-24T15:04:38;3.92;;;2.35;;
325;SDS011;150;52.352;14.058;2023-07-24T15:07:04;7.50;;;2.92;;
325;SDS011;150;52.352;14.058;2023-07-24T15:09:36;3.70;;;2.75;;
325;SDS011;150;52.352;14.058;2023-07-24T15:12:08;6.03;;;3.30;;
325;SDS011;150;52.352;14.058;2023-07-24T15:14:38;4.60;;;2.65;;
325;SDS011;150;52.352;14.058;2023-07-24T15:17:07;4.47;;;3.30;;
325;SDS011;150;52.352;14.058;2023-07-24T15:19:41;3.95;;;2.80;;
325;SDS011;150;52.352;14.058;2023-07-24T15:22:17;4.70;;;3.10;;
325;SDS011;150;52.352;14.058;2023-07-24T15:24:53;3.70;;;2.70;;
325;SDS011;150;52.352;14.058;2023-07-24T15:27:22;5.60;;;2.70;;
325;SDS011;150;52.352;14.058;2023-07-24T15:29:49;5.50;;;3.00;;
325;SDS011;150;52.352;14.058;2023-07-24T15:32:19;4.97;;;3.50;;
325;SDS011;150;52.352;14.058;2023-07-24T15:34:51;5.40;;;3.20;;
325;SDS011;150;52.352;14.058;2023-07-24T15:37:53;5.53;;;3.50;;
325;SDS011;150;52.352;14.058;2023-07-24T15:40:25;4.32;;;2.70;;
325;SDS011;150;52.352;14.058;2023-07-24T15:42:59;5.93;;;3.03;;
325;SDS011;150;52.352;14.058;2023-07-24T15:45:32;4.50;;;3.10;;
325;SDS011;150;52.352;14.058;2023-07-24T15:48:03;5.60;;;3.20;;
325;SDS011;150;52.352;14.058;2023-07-24T15:50:43;6.38;;;2.67;;
325;SDS011;150;52.352;14.058;2023-07-24T15:53:17;5.63;;;3.78;;
325;SDS011;150;52.352;14.058;2023-07-24T15:55:44;6.03;;;3.35;;
325;SDS011;150;52.352;14.058;2023-07-24T15:58:23;5.63;;;3.20;;
325;SDS011;150;52.352;14.058;2023-07-24T16:00:53;5.75;;;3.03;;
325;SDS011;150;52.352;14.058;2023-07-24T16:03:25;4.28;;;2.55;;
325;SDS011;150;52.352;14.058;2023-07-24T16:05:57;6.15;;;3.88;;
325;SDS011;150;52.352;14.058;2023-07-24T16:08:34;4.87;;;3.53;;
325;SDS011;150;52.352;14.058;2023-07-24T16:11:03;4.90;;;2.90;;
325;SDS011;150;52.352;14.058;2023-07-24T16:13:36;5.00;;;3.10;;
325;SDS011;150;52.352;14.058;2023-07-24T16:16:05;5.83;;;3.30;;
325;SDS011;150;52.352;14.058;2023-07-24T16:18:35;5.05;;;3.00;;
325;SDS011;150;52.352;14.058;2023-07-24T16:21:13;5.30;;;3.42;;
325;SDS011;150;52.352;14.058;2023-07-24T16:23:42;6.47;;;3.45;;
325;SDS011;150;52.352;14.058;2023-07-24T16:26:20;5.30;;;3.50;;
325;SDS011;150;52.352;14.058;2023-07-24T16:29:02;5.72;;;3.13;;
325;SDS011;150;52.352;14.058;2023-07-24T16:31:32;6.72;;;3.38;;
325;SDS011;150;52.352;14.058;2023-07-24T16:34:07;4.70;;;2.75;;
325;SDS011;150;52.352;14.058;2023-07-24T16:36:49;5.00;;;3.08;;
325;SDS011;150;52.352;14.058;2023-07-24T16:39:16;6.03;;;3.75;;
325;SDS011;150;52.352;14.058;2023-07-24T16:41:47;4.35;;;2.85;;
325;SDS011;150;52.352;14.058;2023-07-24T16:44:15;4.55;;;2.90;;
325;SDS011;150;52.352;14.058;2023-07-24T16:46:47;5.90;;;3.30;;
325;SDS011;150;52.352;14.058;2023-07-24T16:49:19;5.47;;;3.08;;
325;SDS011;150;52.352;14.058;2023-07-24T16:51:54;4.30;;;2.78;;
325;SDS011;150;52.352;14.058;2023-07-24T16:54:36;5.13;;;3.00;;
325;SDS011;150;52.352;14.058;2023-07-24T16:57:03;5.63;;;3.15;;
325;SDS011;150;52.352;14.058;2023-07-24T16:59:33;5.90;;;3.45;;
325;SDS011;150;52.352;14.058;2023-07-24T17:02:02;5.85;;;3.45;;
325;SDS011;150;52.352;14.058;2023-07-24T17:04:41;4.88;;;3.30;;
325;SDS011;150;52.352;14.058;2023-07-24T17:07:17;4.78;;;2.90;;
325;SDS011;150;52.352;14.058;2023-07-24T17:09:45;5.32;;;2.80;;
325;SDS011;150;52.352;14.058;2023-07-24T17:12:17;5.25;;;3.30;;
325;SDS011;150;52.352;14.058;2023-07-24T17:14:46;5.85;;;3.88;;
325;SDS011;150;52.352;14.058;2023-07-24T17:17:16;4.63;;;2.70;;
325;SDS011;150;52.352;14.058;2023-07-24T17:19:50;7.07;;;3.85;;
325;SDS011;150;52.352;14.058;2023-07-24T17:22:42;5.85;;;3.88;;
325;SDS011;150;52.352;14.058;2023-07-24T17:25:15;6.20;;;3.78;;
325;SDS011;150;52.352;14.058;2023-07-24T17:27:51;5.03;;;3.50;;
325;SDS011;150;52.352;14.058;2023-07-24T17:30:40;6.70;;;3.95;;
325;SDS011;150;52.352;14.058;2023-07-24T17:33:10;6.53;;;3.33;;
325;SDS011;150;52.352;14.058;2023-07-24T17:35:39;5.25;;;3.72;;
325;SDS011;150;52.352;14.058;2023-07-24T17:38:18;4.95;;;3.50;;
325;SDS011;150;52.352;14.058;2023-07-24T17:40:50;5.95;;;3.60;;
325;SDS011;150;52.352;14.058;2023-07-24T17:43:34;9.03;;;6.10;;
325;SDS011;150;52.352;14.058;2023-07-24T17:46:46;6.82;;;4.20;;
325;SDS011;150;52.352;14.058;2023-07-24T17:49:55;6.80;;;3.90;;
325;SDS011;150;52.352;14.058;2023-07-24T17:56:54;7.18;;;4.10;;
325;SDS011;150;52.352;14.058;2023-07-24T18:00:04;4.65;;;3.42;;
325;SDS011;150;52.352;14.058;2023-07-24T18:02:36;6.70;;;5.03;;
325;SDS011;150;52.352;14.058;2023-07-24T18:05:11;13.88;;;11.30;;
325;SDS011;150;52.352;14.058;2023-07-24T18:07:38;7.30;;;5.47;;
325;SDS011;150;52.352;14.058;2023-07-24T18:10:05;6.18;;;3.75;;
325;SDS011;150;52.352;14.058;2023-07-24T18:12:44;7.30;;;3.53;;
325;SDS011;150;52.352;14.058;2023-07-24T18:15:39;4.50;;;1.50;;
325;SDS011;150;52.352;14.058;2023-07-24T18:18:35;2.95;;;1.13;;
325;SDS011;150;52.352;14.058;2023-07-24T18:21:07;5.60;;;0.90;;
325;SDS011;150;52.352;14.058;2023-07-24T18:23:34;5.30;;;1.40;;
325;SDS011;150;52.352;14.058;2023-07-24T18:26:01;5.47;;;1.20;;
325;SDS011;150;52.352;14.058;2023-07-24T18:28:31;4.90;;;1.95;;
325;SDS011;150;52.352;14.058;2023-07-24T18:31:03;5.53;;;0.90;;
325;SDS011;150;52.352;14.058;2023-07-24T18:33:29;2.70;;;0.90;;